9TX0 weather

Houston Police Command Station Heliport
Houston, Texas, United States

Public forecast

Using degrees Fahrenheit for public forecast. Weather courtesy of forecast.io.

METAR (pilot weather report)

Closest report is William P Hobby Airport, 2.3 nm (4.2 km) ESE. Retrieved 2019/07/18 00:53 UTC (47 minutes ago):

KHOU 180053Z 16012KT 10SM FEW030 FEW250 31/23 A2999 RMK AO2 SLP158 T03060233

TAF (pilot weather forecast)

Forecast is more than 12 hours old.

Closest forecast is William P Hobby Airport, 2.3 nm (4.2 km) ESE. Retrieved 2019/07/17 00:24 UTC (1 day ago):

TAF KHOU 172322Z 1800/1824 16013KT P6SM SCT035 SCT250 FM180200 16007KT P6SM SCT025 FM181500 17008KT P6SM SCT030 FM181800 16012G22KT P6SM SCT040